Terminal Aerodrome Forecast
Issued by NWS

Home | Current Version | Previous Version | Text Only | Print | Product List | Glossary On
Versions: 1 2 3 4 5 6 7 8 9 10 11 12 13 14 15 16 17
000
FTUS43 KABR 232000 AAA
TAFMBG
TAF AMD
KMBG 232047Z 2321/2418 15011KT P6SM OVC014
     FM240100 13008KT P6SM OVC025
     FM241500 21006KT P6SM SKC=

USA.gov is the U.S. government's official web portal to all federal, state and local government web resources and services.